createdAt,value
2017-10-28T00:02:12.955Z,101653.43
2017-10-28T00:04:40.359Z,101649.06
2017-10-28T00:07:07.813Z,101657.77
2017-10-28T00:09:35.253Z,101646.91
2017-10-28T00:12:02.634Z,101633.56
2017-10-28T00:14:30.062Z,101638.39
2017-10-28T00:16:57.518Z,101637.84
2017-10-28T00:19:24.914Z,101644.12
2017-10-28T00:21:52.303Z,101634.09
2017-10-28T00:24:19.704Z,101622.78
2017-10-28T00:26:47.086Z,101610.16
2017-10-28T00:29:14.482Z,101598.01
2017-10-28T00:31:47.607Z,101599.37
2017-10-28T00:34:20.542Z,101586.35
2017-10-28T00:36:47.941Z,101576.72
2017-10-28T00:39:15.387Z,101580.03
2017-10-28T00:41:42.834Z,101572.37
2017-10-28T00:44:10.302Z,101568.53
2017-10-28T00:46:37.675Z,101569.22
2017-10-28T00:49:05.083Z,101574.30
2017-10-28T00:51:32.562Z,101568.19
2017-10-28T00:53:59.967Z,101567.98
2017-10-28T00:56:27.374Z,101557.75
2017-10-28T00:58:54.780Z,101564.95
2017-10-28T01:01:22.173Z,101561.23
2017-10-28T01:03:49.566Z,101547.72
2017-10-28T01:06:16.990Z,101535.79
2017-10-28T01:08:44.377Z,101524.67
2017-10-28T01:11:11.778Z,101538.00
2017-10-28T01:13:39.176Z,101526.81
2017-10-28T01:16:06.618Z,101535.31
2017-10-28T01:18:34.067Z,101528.12
2017-10-28T01:21:01.458Z,101521.30
2017-10-28T01:23:28.848Z,101527.95
2017-10-28T01:25:56.235Z,101527.14
2017-10-28T01:28:23.627Z,101513.22
2017-10-28T01:30:51.024Z,101523.73
2017-10-28T01:33:18.510Z,101503.77
2017-10-28T01:35:45.902Z,101500.38
2017-10-28T01:38:13.291Z,101501.61
2017-10-28T01:40:40.678Z,101500.84
2017-10-28T01:43:08.095Z,101499.17
2017-10-28T01:45:35.491Z,101479.03
2017-10-28T01:48:02.875Z,101490.49
2017-10-28T01:50:30.299Z,101495.16
2017-10-28T01:52:57.682Z,101481.53
2017-10-28T01:55:25.107Z,101479.30
2017-10-28T01:57:52.562Z,101466.88
2017-10-28T02:00:19.955Z,101463.03
2017-10-28T02:02:47.379Z,101461.58
2017-10-28T02:05:14.775Z,101434.64
2017-10-28T02:07:42.173Z,101426.45
2017-10-28T02:10:09.555Z,101425.29
2017-10-28T02:12:37.007Z,101415.34
2017-10-28T02:15:04.458Z,101409.38
2017-10-28T02:17:31.850Z,101399.14
2017-10-28T02:19:59.243Z,101391.28
2017-10-28T02:22:26.639Z,101391.05
2017-10-28T02:24:54.027Z,101386.52
2017-10-28T02:27:21.427Z,101384.30
2017-10-28T02:29:48.824Z,101374.06
2017-10-28T02:32:16.206Z,101369.09
2017-10-28T02:34:43.595Z,101357.75
2017-10-28T02:37:11.052Z,101357.89
2017-10-28T02:39:38.513Z,101361.17
2017-10-28T02:42:05.894Z,101350.08
2017-10-28T02:44:33.324Z,101340.41
2017-10-28T02:47:00.704Z,101347.44
2017-10-28T02:49:28.095Z,101342.16
2017-10-28T02:51:55.490Z,101336.77
2017-10-28T02:54:22.867Z,101332.13
2017-10-28T02:56:50.262Z,101340.38
2017-10-28T02:59:17.644Z,101334.91
2017-10-28T03:01:45.057Z,101341.80
2017-10-28T03:04:12.455Z,101341.72
2017-10-28T03:06:39.843Z,101345.96
2017-10-28T03:09:07.235Z,101324.58
2017-10-28T03:11:34.629Z,101326.95
2017-10-28T03:14:02.011Z,101319.65
2017-10-28T03:16:29.398Z,101318.80
2017-10-28T03:18:56.801Z,101305.53
2017-10-28T03:21:24.191Z,101290.28
2017-10-28T03:23:51.696Z,101294.51
2017-10-28T03:26:19.075Z,101285.52
2017-10-28T03:28:46.506Z,101284.78
2017-10-28T03:31:13.895Z,101287.56
2017-10-28T03:33:41.295Z,101284.74
2017-10-28T03:36:08.670Z,101286.28
2017-10-28T03:38:36.063Z,101276.22
2017-10-28T03:41:03.482Z,101269.33
2017-10-28T03:43:30.884Z,101266.48
2017-10-28T03:45:58.268Z,101268.16
2017-10-28T03:48:25.681Z,101265.67
2017-10-28T03:50:53.058Z,101256.08
2017-10-28T03:53:20.458Z,101264.61
2017-10-28T03:55:47.913Z,101241.94
2017-10-28T03:58:15.306Z,101229.32
2017-10-28T04:00:42.730Z,101233.05
2017-10-28T04:03:10.117Z,101225.22
2017-10-28T04:05:37.515Z,101228.66
2017-10-28T04:08:04.894Z,101218.74
2017-10-28T04:10:32.299Z,101216.20
2017-10-28T04:12:59.684Z,101210.76
2017-10-28T04:15:27.085Z,101199.95
2017-10-28T04:17:55.355Z,101195.60
2017-10-28T04:20:22.763Z,101192.78
2017-10-28T04:22:50.247Z,101188.38
2017-10-28T04:25:17.686Z,101183.41
2017-10-28T04:27:45.155Z,101176.27
2017-10-28T04:30:12.563Z,101162.57
2017-10-28T04:32:39.952Z,101145.76
2017-10-28T04:35:07.352Z,101128.71
2017-10-28T04:37:34.734Z,101124.16
2017-10-28T04:40:02.139Z,101133.72
2017-10-28T04:42:29.523Z,101131.55
2017-10-28T04:44:56.946Z,101116.46
2017-10-28T04:47:24.411Z,101133.95
2017-10-28T04:49:51.799Z,101121.34
2017-10-28T04:52:19.207Z,101101.30
2017-10-28T04:54:46.626Z,101101.81
2017-10-28T04:57:14.014Z,101106.56
2017-10-28T04:59:41.484Z,101085.06
2017-10-28T05:02:08.874Z,101085.33
2017-10-28T05:04:36.294Z,101073.97
2017-10-28T05:07:03.683Z,101069.48
2017-10-28T05:09:31.073Z,101075.38
2017-10-28T05:11:58.492Z,101075.34
2017-10-28T05:14:25.858Z,101054.95
2017-10-28T05:16:53.255Z,101077.41
2017-10-28T05:19:20.646Z,101064.61
2017-10-28T05:21:48.050Z,101058.60
2017-10-28T05:24:15.438Z,101060.52
2017-10-28T05:26:42.822Z,101050.68
2017-10-28T05:29:10.210Z,101046.96
2017-10-28T05:31:37.700Z,101033.03
2017-10-28T05:34:05.090Z,101038.53
2017-10-28T05:36:32.479Z,101038.09
2017-10-28T05:38:59.869Z,101030.96
2017-10-28T05:41:27.327Z,101019.35
2017-10-28T05:43:54.779Z,101009.31
2017-10-28T05:46:22.230Z,101014.87
2017-10-28T05:48:49.697Z,101016.39
2017-10-28T05:51:17.142Z,100999.77
2017-10-28T05:53:44.538Z,100998.25
2017-10-28T05:56:11.930Z,100996.53
2017-10-28T05:58:39.334Z,100984.86
2017-10-28T06:01:06.736Z,100978.94
2017-10-28T06:03:34.141Z,100962.97
2017-10-28T06:06:01.599Z,100966.53
2017-10-28T06:08:28.998Z,100974.62
2017-10-28T06:10:56.375Z,100961.34
2017-10-28T06:13:23.846Z,100955.77
2017-10-28T06:15:51.298Z,100949.29
2017-10-28T06:18:18.770Z,100955.55
2017-10-28T06:20:46.146Z,100938.67
2017-10-28T06:23:13.546Z,100958.41
2017-10-28T06:25:41.030Z,100954.80
2017-10-28T06:28:08.439Z,100959.55
2017-10-28T06:30:35.934Z,100965.98
2017-10-28T06:33:03.347Z,100965.55
2017-10-28T06:35:30.743Z,100954.51
2017-10-28T06:37:58.151Z,100955.52
2017-10-28T06:40:25.544Z,100950.62
2017-10-28T06:42:52.934Z,100977.00
2017-10-28T06:45:20.326Z,100977.69
2017-10-28T06:47:47.742Z,100970.27
2017-10-28T06:50:15.206Z,100949.04
2017-10-28T06:52:42.598Z,100954.09
2017-10-28T06:55:10.030Z,100952.11
2017-10-28T06:57:37.480Z,100963.72
2017-10-28T07:00:04.878Z,100955.59
2017-10-28T07:02:32.267Z,100960.25
2017-10-28T07:04:59.759Z,100948.98
2017-10-28T07:07:27.210Z,100955.36
2017-10-28T07:09:54.654Z,100957.00
2017-10-28T07:12:22.118Z,100953.11
2017-10-28T07:14:49.573Z,100958.19
2017-10-28T07:17:17.030Z,100956.76
2017-10-28T07:19:44.486Z,100947.86
2017-10-28T07:22:11.878Z,100941.48
2017-10-28T07:24:39.268Z,100938.28
2017-10-28T07:27:06.759Z,100936.39
2017-10-28T07:29:34.175Z,100937.84
2017-10-28T07:32:01.551Z,100941.67
2017-10-28T07:34:29.030Z,100948.52
2017-10-28T07:36:56.470Z,100944.87
2017-10-28T07:39:23.864Z,100938.53
2017-10-28T07:41:51.259Z,100931.55
2017-10-28T07:44:18.659Z,100922.72
2017-10-28T07:46:46.047Z,100913.73
2017-10-28T07:49:13.439Z,100926.16
2017-10-28T07:51:40.835Z,100912.77
2017-10-28T07:54:08.447Z,100905.05
2017-10-28T07:56:35.838Z,100904.97
2017-10-28T07:59:03.227Z,100908.70
2017-10-28T08:01:30.622Z,100900.38
2017-10-28T08:04:03.650Z,100908.66
2017-10-28T08:06:31.053Z,100908.02
2017-10-28T08:08:58.439Z,100903.78
2017-10-28T08:11:25.830Z,100897.27
2017-10-28T08:13:53.246Z,100881.38
2017-10-28T08:16:20.654Z,100890.58
2017-10-28T08:18:48.110Z,100887.30
2017-10-28T08:21:15.508Z,100890.91
2017-10-28T08:23:42.891Z,100882.48
2017-10-28T08:26:10.287Z,100889.80
2017-10-28T08:28:37.674Z,100880.34
2017-10-28T08:31:05.094Z,100870.91
2017-10-28T08:33:32.483Z,100857.72
2017-10-28T08:35:59.886Z,100872.83
2017-10-28T08:38:27.291Z,100871.95
2017-10-28T08:40:54.684Z,100854.78
2017-10-28T08:43:22.079Z,100846.52
2017-10-28T08:45:49.466Z,100833.77
2017-10-28T08:48:16.863Z,100839.50
2017-10-28T08:50:44.266Z,100831.94
2017-10-28T08:53:11.659Z,100818.16
2017-10-28T08:55:39.149Z,100817.62
2017-10-28T08:58:06.608Z,100817.95
2017-10-28T09:00:33.994Z,100817.81
2017-10-28T09:03:01.400Z,100816.91
2017-10-28T09:05:28.785Z,100808.76
2017-10-28T09:07:56.206Z,100800.63
2017-10-28T09:10:23.682Z,100804.24
2017-10-28T09:12:51.067Z,100806.15
2017-10-28T09:15:18.460Z,100802.09
2017-10-28T09:17:45.855Z,100806.01
2017-10-28T09:20:13.302Z,100793.44
2017-10-28T09:22:40.707Z,100787.55
2017-10-28T09:25:08.097Z,100787.83
2017-10-28T09:27:35.567Z,100774.29
2017-10-28T09:30:03.771Z,100783.09
2017-10-28T09:32:31.171Z,100779.12
2017-10-28T09:34:58.553Z,100761.64
2017-10-28T09:37:25.951Z,100767.88
2017-10-28T09:39:53.371Z,100768.47
2017-10-28T09:42:20.841Z,100783.65
2017-10-28T09:44:48.207Z,100781.70
2017-10-28T09:47:15.627Z,100773.47
2017-10-28T09:49:43.083Z,100770.62
2017-10-28T09:52:10.547Z,100774.30
2017-10-28T09:54:37.939Z,100776.59
2017-10-28T09:57:05.335Z,100769.98
2017-10-28T09:59:32.728Z,100758.96
2017-10-28T10:02:00.171Z,100753.22
2017-10-28T10:04:27.607Z,100748.76
2017-10-28T10:06:55.098Z,100742.09
2017-10-28T10:09:22.490Z,100755.62
2017-10-28T10:11:49.879Z,100757.02
2017-10-28T10:14:17.350Z,100753.42
2017-10-28T10:16:44.808Z,100748.78
2017-10-28T10:19:12.203Z,100737.52
2017-10-28T10:21:39.598Z,100729.89
2017-10-28T10:24:06.987Z,100730.04
2017-10-28T10:26:34.371Z,100726.61
2017-10-28T10:29:01.767Z,100726.84
2017-10-28T10:31:29.238Z,100731.72
2017-10-28T10:33:56.628Z,100727.05
2017-10-28T10:36:24.054Z,100731.97
2017-10-28T10:38:51.443Z,100723.56
2017-10-28T10:41:18.864Z,100727.54
2017-10-28T10:43:46.320Z,100725.14
2017-10-28T10:46:13.711Z,100715.97
2017-10-28T10:48:41.102Z,100714.55
2017-10-28T10:51:08.508Z,100698.97
2017-10-28T10:53:35.893Z,100691.05
2017-10-28T10:56:03.399Z,100686.48
2017-10-28T10:58:30.794Z,100687.78
2017-10-28T11:00:58.224Z,100679.95
2017-10-28T11:03:25.670Z,100672.26
2017-10-28T11:05:53.068Z,100659.23
2017-10-28T11:08:20.454Z,100665.99
2017-10-28T11:10:47.846Z,100676.22
2017-10-28T11:13:15.251Z,100667.86
2017-10-28T11:15:42.646Z,100660.66
2017-10-28T11:18:10.104Z,100666.47
2017-10-28T11:20:37.554Z,100657.70
2017-10-28T11:23:04.965Z,100661.20
2017-10-28T11:25:32.357Z,100651.39
2017-10-28T11:27:59.826Z,100652.78
2017-10-28T11:30:27.211Z,100638.89
2017-10-28T11:32:54.634Z,100628.09
2017-10-28T11:35:22.024Z,100628.06
2017-10-28T11:37:49.420Z,100624.32
2017-10-28T11:40:16.802Z,100614.84
2017-10-28T11:42:44.194Z,100596.13
2017-10-28T11:45:11.609Z,100596.34
2017-10-28T11:47:39.035Z,100601.06
2017-10-28T11:50:06.524Z,100605.89
2017-10-28T11:52:33.930Z,100599.76
2017-10-28T11:55:01.382Z,100585.73
2017-10-28T11:57:28.773Z,100581.00
2017-10-28T11:59:56.166Z,100577.41
2017-10-28T12:02:23.691Z,100574.22
2017-10-28T12:04:51.079Z,100574.17
2017-10-28T12:07:18.566Z,100571.05
2017-10-28T12:09:45.950Z,100571.20
2017-10-28T12:12:13.352Z,100552.77
2017-10-28T12:14:40.739Z,100537.95
2017-10-28T12:17:08.263Z,100535.23
2017-10-28T12:19:35.651Z,100506.92
2017-10-28T12:22:03.099Z,100518.05
2017-10-28T12:24:30.498Z,100509.48
2017-10-28T12:26:57.896Z,100523.53
2017-10-28T12:29:25.292Z,100511.78
2017-10-28T12:31:52.684Z,100512.41
2017-10-28T12:34:20.089Z,100512.70
2017-10-28T12:36:47.484Z,100505.70
2017-10-28T12:39:14.883Z,100505.52
2017-10-28T12:41:42.267Z,100481.77
2017-10-28T12:44:09.663Z,100488.84
2017-10-28T12:46:37.049Z,100481.32
2017-10-28T12:49:04.519Z,100476.73
2017-10-28T12:51:31.906Z,100474.16
2017-10-28T12:53:59.309Z,100483.41
2017-10-28T12:56:26.798Z,100469.59
2017-10-28T12:58:54.242Z,100472.25
2017-10-28T13:01:21.627Z,100463.40
2017-10-28T13:03:49.019Z,100462.04
2017-10-28T13:06:16.506Z,100469.05
2017-10-28T13:08:43.966Z,100453.83
2017-10-28T13:11:11.391Z,100449.11
2017-10-28T13:13:38.875Z,100449.52
2017-10-28T13:16:06.273Z,100448.15
2017-10-28T13:18:33.675Z,100441.68
2017-10-28T13:21:01.142Z,100443.06
2017-10-28T13:23:28.547Z,100444.45
2017-10-28T13:25:55.943Z,100440.98
2017-10-28T13:28:23.407Z,100424.89
2017-10-28T13:30:50.807Z,100438.30
2017-10-28T13:33:18.232Z,100430.29
2017-10-28T13:35:45.679Z,100427.13
2017-10-28T13:38:13.316Z,100414.28
2017-10-28T13:40:40.727Z,100412.02
2017-10-28T13:43:08.103Z,100408.64
2017-10-28T13:45:35.502Z,100402.67
2017-10-28T13:48:02.878Z,100404.61
2017-10-28T13:50:30.275Z,100417.39
2017-10-28T13:52:57.668Z,100407.47
2017-10-28T13:55:25.067Z,100408.73
2017-10-28T13:57:52.499Z,100400.06
2017-10-28T14:00:19.890Z,100390.66
2017-10-28T14:02:47.278Z,100390.16
2017-10-28T14:05:14.680Z,100386.55
2017-10-28T14:07:42.071Z,100382.16
2017-10-28T14:10:09.476Z,100379.80
2017-10-28T14:12:36.867Z,100379.45
2017-10-28T14:15:04.388Z,100376.91
2017-10-28T14:17:31.775Z,100370.20
2017-10-28T14:19:59.206Z,100369.73
2017-10-28T14:22:26.601Z,100353.34
2017-10-28T14:24:53.986Z,100350.98
2017-10-28T14:27:21.484Z,100346.25
2017-10-28T14:29:48.858Z,100348.84
2017-10-28T14:32:17.072Z,100344.78
2017-10-28T14:34:44.545Z,100333.09
2017-10-28T14:37:11.942Z,100323.67
2017-10-28T14:39:39.336Z,100316.63
2017-10-28T14:42:06.734Z,100328.30
2017-10-28T14:44:34.131Z,100319.38
2017-10-28T14:47:01.649Z,100331.44
2017-10-28T14:49:29.082Z,100317.23
2017-10-28T14:51:56.487Z,100306.23
2017-10-28T14:54:23.910Z,100307.48
2017-10-28T14:56:51.289Z,100311.37
2017-10-28T14:59:18.682Z,100308.95
2017-10-28T15:01:46.076Z,100289.48
2017-10-28T15:04:13.474Z,100286.28
2017-10-28T15:06:40.862Z,100277.19
2017-10-28T15:09:08.254Z,100271.94
2017-10-28T15:11:35.721Z,100265.73
2017-10-28T15:14:03.119Z,100277.33
2017-10-28T15:16:30.499Z,100252.86
2017-10-28T15:18:57.894Z,100242.67
2017-10-28T15:21:25.282Z,100242.98
2017-10-28T15:23:52.767Z,100227.53
2017-10-28T15:26:20.227Z,100216.42
2017-10-28T15:28:47.615Z,100220.88
2017-10-28T15:31:15.027Z,100215.73
2017-10-28T15:33:42.507Z,100209.64
2017-10-28T15:36:09.882Z,100204.02
2017-10-28T15:38:37.274Z,100200.81
2017-10-28T15:41:04.672Z,100208.82
2017-10-28T15:43:32.066Z,100203.91
2017-10-28T15:45:59.563Z,100201.55
2017-10-28T15:48:26.946Z,100214.77
2017-10-28T15:50:54.343Z,100200.48
2017-10-28T15:53:21.734Z,100197.95
2017-10-28T15:55:49.135Z,100197.88
2017-10-28T15:58:16.548Z,100185.75
2017-10-28T16:00:44.004Z,100186.00
2017-10-28T16:03:11.403Z,100171.85
2017-10-28T16:05:38.786Z,100158.41
2017-10-28T16:08:06.190Z,100161.67
2017-10-28T16:10:33.574Z,100154.42
2017-10-28T16:13:00.995Z,100138.64
2017-10-28T16:15:28.394Z,100143.88
2017-10-28T16:17:55.805Z,100141.61
2017-10-28T16:20:23.219Z,100145.52
2017-10-28T16:22:50.704Z,100142.16
2017-10-28T16:25:18.159Z,100149.33
2017-10-28T16:27:45.542Z,100157.52
2017-10-28T16:30:12.942Z,100137.98
2017-10-28T16:32:40.345Z,100137.42
2017-10-28T16:35:07.730Z,100143.20
2017-10-28T16:37:35.125Z,100156.80
2017-10-28T16:40:02.515Z,100160.06
2017-10-28T16:42:29.939Z,100141.42
2017-10-28T16:44:57.407Z,100146.13
2017-10-28T16:47:24.855Z,100135.74
2017-10-28T16:49:52.239Z,100128.31
2017-10-28T16:52:19.633Z,100128.95
2017-10-28T16:54:47.018Z,100130.22
2017-10-28T16:57:14.520Z,100129.95
2017-10-28T16:59:41.902Z,100124.02
2017-10-28T17:02:09.295Z,100111.51
2017-10-28T17:04:36.757Z,100095.47
2017-10-28T17:07:04.146Z,100093.31
2017-10-28T17:09:31.550Z,100079.34
2017-10-28T17:11:59.030Z,100079.38
2017-10-28T17:14:26.403Z,100069.63
2017-10-28T17:16:53.802Z,100059.08
2017-10-28T17:19:21.289Z,100054.02
2017-10-28T17:21:48.952Z,100046.50
2017-10-28T17:24:16.471Z,100042.95
2017-10-28T17:26:43.850Z,100042.00
2017-10-28T17:29:11.247Z,100026.35
2017-10-28T17:31:38.636Z,100034.58
2017-10-28T17:34:06.075Z,100031.17
2017-10-28T17:36:33.548Z,100030.02
2017-10-28T17:39:01.034Z,100015.77
2017-10-28T17:41:28.428Z,100023.65
2017-10-28T17:43:55.829Z,100013.17
2017-10-28T17:46:23.219Z,100004.31
2017-10-28T17:48:50.606Z,100005.16
2017-10-28T17:51:17.995Z,100015.08
2017-10-28T17:53:45.384Z,100002.22
2017-10-28T17:56:12.770Z,99997.84
2017-10-28T17:58:40.158Z,99986.47
2017-10-28T18:01:07.599Z,99975.39
2017-10-28T18:03:35.000Z,99984.77
2017-10-28T18:06:02.395Z,99977.70
2017-10-28T18:08:29.795Z,99972.41
2017-10-28T18:10:57.187Z,99968.92
2017-10-28T18:13:24.600Z,99957.42
2017-10-28T18:15:51.976Z,99952.73
2017-10-28T18:18:19.385Z,99938.53
2017-10-28T18:20:46.843Z,99936.44
2017-10-28T18:23:14.227Z,99931.86
2017-10-28T18:25:41.758Z,99930.12
2017-10-28T18:28:09.150Z,99927.01
2017-10-28T18:30:36.567Z,99921.34
2017-10-28T18:33:03.959Z,99904.45
2017-10-28T18:35:31.359Z,99893.13
2017-10-28T18:37:58.856Z,99889.47
2017-10-28T18:40:26.245Z,99890.70
2017-10-28T18:42:53.614Z,99872.20
2017-10-28T18:45:21.043Z,99868.82
2017-10-28T18:47:48.441Z,99856.26
2017-10-28T18:50:15.830Z,99855.48
2017-10-28T18:52:43.212Z,99849.64
2017-10-28T18:55:10.622Z,99854.32
2017-10-28T18:57:38.009Z,99850.78
2017-10-28T19:00:05.392Z,99839.78
2017-10-28T19:02:32.777Z,99824.06
2017-10-28T19:05:00.163Z,99820.28
2017-10-28T19:07:27.539Z,99811.37
2017-10-28T19:09:54.955Z,99799.03
2017-10-28T19:12:22.414Z,99795.23
2017-10-28T19:14:49.871Z,99773.41
2017-10-28T19:17:17.275Z,99781.05
2017-10-28T19:19:44.664Z,99762.07
2017-10-28T19:22:12.051Z,99767.25
2017-10-28T19:24:39.483Z,99757.27
2017-10-28T19:27:06.938Z,99750.73
2017-10-28T19:29:34.338Z,99747.66
2017-10-28T19:32:01.715Z,99736.66
2017-10-28T19:34:29.094Z,99736.55
2017-10-28T19:36:56.501Z,99733.94
2017-10-28T19:39:23.897Z,99717.86
2017-10-28T19:41:51.278Z,99713.73
2017-10-28T19:44:18.663Z,99716.16
2017-10-28T19:46:46.062Z,99709.98
2017-10-28T19:49:13.506Z,99701.70
2017-10-28T19:51:40.900Z,99686.01
2017-10-28T19:54:08.286Z,99680.19
2017-10-28T19:56:35.670Z,99664.25
2017-10-28T19:59:03.059Z,99662.89
2017-10-28T20:01:30.618Z,99663.73
2017-10-28T20:03:57.978Z,99650.17
2017-10-28T20:06:25.364Z,99641.28
2017-10-28T20:08:52.759Z,99633.93
2017-10-28T20:11:20.140Z,99632.85
2017-10-28T20:13:47.559Z,99626.74
2017-10-28T20:16:14.943Z,99626.41
2017-10-28T20:18:42.335Z,99614.78
2017-10-28T20:21:09.720Z,99615.88
2017-10-28T20:23:37.175Z,99605.89
2017-10-28T20:26:04.562Z,99594.16
2017-10-28T20:28:31.954Z,99592.56
2017-10-28T20:30:59.438Z,99596.05
2017-10-28T20:33:26.827Z,99585.81
2017-10-28T20:35:54.218Z,99580.52
2017-10-28T20:38:21.711Z,99582.73
2017-10-28T20:40:49.098Z,99578.19
2017-10-28T20:43:16.510Z,99578.72
2017-10-28T20:45:43.970Z,99554.38
2017-10-28T20:48:11.362Z,99565.62
2017-10-28T20:50:38.793Z,99573.06
2017-10-28T20:53:06.242Z,99549.48
2017-10-28T20:55:33.702Z,99564.67
2017-10-28T20:58:01.090Z,99543.00
2017-10-28T21:00:28.482Z,99527.32
2017-10-28T21:02:55.878Z,99522.84
2017-10-28T21:05:23.326Z,99527.53
2017-10-28T21:07:51.506Z,99529.08
2017-10-28T21:10:18.903Z,99501.73
2017-10-28T21:12:46.307Z,99490.02
2017-10-28T21:15:13.698Z,99493.61
2017-10-28T21:17:41.160Z,99492.58
2017-10-28T21:20:08.545Z,99472.30
2017-10-28T21:22:36.050Z,99470.06
2017-10-28T21:25:03.435Z,99466.00
2017-10-28T21:27:30.856Z,99469.98
2017-10-28T21:29:58.248Z,99466.91
2017-10-28T21:32:25.616Z,99440.55
2017-10-28T21:34:53.014Z,99438.34
2017-10-28T21:37:20.398Z,99444.98
2017-10-28T21:39:47.785Z,99431.51
2017-10-28T21:42:15.162Z,99433.10
2017-10-28T21:44:42.542Z,99417.82
2017-10-28T21:47:09.930Z,99412.39
2017-10-28T21:49:37.339Z,99406.52
2017-10-28T21:52:04.731Z,99402.41
2017-10-28T21:54:32.125Z,99393.42
2017-10-28T21:56:59.516Z,99378.16
2017-10-28T21:59:26.963Z,99367.76
2017-10-28T22:01:54.355Z,99372.27
2017-10-28T22:04:21.736Z,99373.13
2017-10-28T22:06:49.131Z,99342.70
2017-10-28T22:09:16.516Z,99340.83
2017-10-28T22:11:43.944Z,99341.16
2017-10-28T22:14:11.303Z,99322.09
2017-10-28T22:16:38.686Z,99315.66
2017-10-28T22:19:06.070Z,99312.09
2017-10-28T22:21:33.470Z,99314.95
2017-10-28T22:24:00.875Z,99303.88
2017-10-28T22:26:28.258Z,99284.61
2017-10-28T22:28:55.692Z,99297.87
2017-10-28T22:31:23.078Z,99266.91
2017-10-28T22:33:50.470Z,99261.30
2017-10-28T22:36:17.852Z,99248.02
2017-10-28T22:38:45.314Z,99263.66
2017-10-28T22:41:12.772Z,99263.81
2017-10-28T22:43:40.237Z,99257.11
2017-10-28T22:46:07.602Z,99255.31
2017-10-28T22:48:34.986Z,99240.53
2017-10-28T22:51:02.375Z,99239.00
2017-10-28T22:53:29.765Z,99232.14
2017-10-28T22:55:57.193Z,99232.67
2017-10-28T22:58:24.599Z,99230.23
2017-10-28T23:00:51.978Z,99208.17
2017-10-28T23:03:19.472Z,99210.42
2017-10-28T23:05:46.847Z,99200.84
2017-10-28T23:08:14.239Z,99203.22
2017-10-28T23:10:41.666Z,99194.22
2017-10-28T23:13:09.059Z,99191.87
2017-10-28T23:15:36.547Z,99186.11
2017-10-28T23:18:03.952Z,99179.88
2017-10-28T23:20:31.338Z,99174.33
2017-10-28T23:22:58.835Z,99175.94
2017-10-28T23:25:26.279Z,99170.37
2017-10-28T23:27:53.739Z,99164.38
2017-10-28T23:30:21.127Z,99163.08
2017-10-28T23:32:48.523Z,99154.89
2017-10-28T23:35:15.923Z,99137.84
2017-10-28T23:37:43.307Z,99149.17
2017-10-28T23:40:10.698Z,99136.00
2017-10-28T23:42:38.165Z,99120.38
2017-10-28T23:45:05.550Z,99103.39
2017-10-28T23:47:32.983Z,99099.03
2017-10-28T23:50:00.376Z,99089.31
2017-10-28T23:52:27.790Z,99068.60
2017-10-28T23:54:55.245Z,99065.64
2017-10-28T23:57:22.704Z,99045.90
2017-10-28T23:59:50.099Z,99044.35
